sensor_id;sensor_type;location;lat;lon;timestamp;P1;durP1;ratioP1;P2;durP2;ratioP2
28934;SDS011;16044;52.726;-2.108;2023-05-10T00:01:59;15.90;;;5.15;;
28934;SDS011;16044;52.726;-2.108;2023-05-10T00:04:47;16.20;;;4.82;;
28934;SDS011;16044;52.726;-2.108;2023-05-10T00:07:35;15.85;;;4.80;;
28934;SDS011;16044;52.726;-2.108;2023-05-10T00:10:22;16.13;;;4.85;;
28934;SDS011;16044;52.726;-2.108;2023-05-10T00:13:10;22.67;;;4.80;;
28934;SDS011;16044;52.726;-2.108;2023-05-10T00:15:57;14.00;;;4.50;;
28934;SDS011;16044;52.726;-2.108;2023-05-10T00:18:45;17.92;;;4.90;;
28934;SDS011;16044;52.726;-2.108;2023-05-10T00:21:32;12.57;;;4.55;;
28934;SDS011;16044;52.726;-2.108;2023-05-10T00:24:20;16.40;;;4.45;;
28934;SDS011;16044;52.726;-2.108;2023-05-10T00:27:07;29.70;;;5.10;;
28934;SDS011;16044;52.726;-2.108;2023-05-10T00:29:55;19.50;;;4.85;;
28934;SDS011;16044;52.726;-2.108;2023-05-10T00:32:42;18.08;;;4.57;;
28934;SDS011;16044;52.726;-2.108;2023-05-10T00:35:30;8.98;;;3.58;;
28934;SDS011;16044;52.726;-2.108;2023-05-10T00:38:17;13.60;;;3.88;;
28934;SDS011;16044;52.726;-2.108;2023-05-10T00:41:05;16.15;;;4.35;;
28934;SDS011;16044;52.726;-2.108;2023-05-10T00:43:52;12.48;;;4.35;;
28934;SDS011;16044;52.726;-2.108;2023-05-10T00:46:40;24.98;;;5.05;;
28934;SDS011;16044;52.726;-2.108;2023-05-10T00:49:28;16.23;;;4.30;;
28934;SDS011;16044;52.726;-2.108;2023-05-10T00:52:16;16.05;;;4.63;;
28934;SDS011;16044;52.726;-2.108;2023-05-10T00:55:03;18.88;;;4.68;;
28934;SDS011;16044;52.726;-2.108;2023-05-10T00:57:52;21.08;;;5.07;;
28934;SDS011;16044;52.726;-2.108;2023-05-10T01:00:41;16.10;;;4.63;;
28934;SDS011;16044;52.726;-2.108;2023-05-10T01:03:30;17.38;;;4.95;;
28934;SDS011;16044;52.726;-2.108;2023-05-10T01:06:19;15.95;;;5.00;;
28934;SDS011;16044;52.726;-2.108;2023-05-10T01:09:06;13.45;;;4.47;;
28934;SDS011;16044;52.726;-2.108;2023-05-10T01:11:54;16.92;;;5.07;;
28934;SDS011;16044;52.726;-2.108;2023-05-10T01:14:42;16.05;;;4.30;;
28934;SDS011;16044;52.726;-2.108;2023-05-10T01:17:30;19.33;;;4.57;;
28934;SDS011;16044;52.726;-2.108;2023-05-10T01:20:18;18.85;;;4.60;;
28934;SDS011;16044;52.726;-2.108;2023-05-10T01:33:26;13.02;;;4.45;;
28934;SDS011;16044;52.726;-2.108;2023-05-10T01:36:31;16.15;;;4.60;;
28934;SDS011;16044;52.726;-2.108;2023-05-10T01:39:32;14.90;;;4.50;;
28934;SDS011;16044;52.726;-2.108;2023-05-10T01:42:36;14.85;;;4.28;;
28934;SDS011;16044;52.726;-2.108;2023-05-10T01:45:47;17.42;;;4.60;;
28934;SDS011;16044;52.726;-2.108;2023-05-10T01:48:57;13.07;;;4.47;;
28934;SDS011;16044;52.726;-2.108;2023-05-10T01:51:49;21.00;;;4.47;;
28934;SDS011;16044;52.726;-2.108;2023-05-10T01:54:41;18.30;;;4.60;;
28934;SDS011;16044;52.726;-2.108;2023-05-10T01:57:37;21.15;;;4.70;;
28934;SDS011;16044;52.726;-2.108;2023-05-10T02:00:26;16.83;;;5.03;;
28934;SDS011;16044;52.726;-2.108;2023-05-10T02:03:15;12.23;;;4.47;;
28934;SDS011;16044;52.726;-2.108;2023-05-10T02:06:06;15.95;;;4.13;;
28934;SDS011;16044;52.726;-2.108;2023-05-10T02:08:56;11.43;;;4.70;;
28934;SDS011;16044;52.726;-2.108;2023-05-10T02:11:44;14.50;;;4.82;;
28934;SDS011;16044;52.726;-2.108;2023-05-10T02:14:34;19.80;;;5.40;;
28934;SDS011;16044;52.726;-2.108;2023-05-10T02:17:23;12.82;;;4.40;;
28934;SDS011;16044;52.726;-2.108;2023-05-10T02:20:12;16.85;;;5.45;;
28934;SDS011;16044;52.726;-2.108;2023-05-10T02:23:03;16.85;;;4.88;;
28934;SDS011;16044;52.726;-2.108;2023-05-10T02:25:52;15.43;;;4.88;;
28934;SDS011;16044;52.726;-2.108;2023-05-10T02:28:42;13.95;;;4.72;;
28934;SDS011;16044;52.726;-2.108;2023-05-10T02:31:33;11.07;;;4.30;;
28934;SDS011;16044;52.726;-2.108;2023-05-10T02:34:22;15.32;;;5.30;;
28934;SDS011;16044;52.726;-2.108;2023-05-10T02:37:13;21.10;;;5.50;;
28934;SDS011;16044;52.726;-2.108;2023-05-10T02:40:02;16.55;;;5.15;;
28934;SDS011;16044;52.726;-2.108;2023-05-10T02:42:52;13.70;;;4.18;;
28934;SDS011;16044;52.726;-2.108;2023-05-10T02:45:43;14.55;;;4.68;;
28934;SDS011;16044;52.726;-2.108;2023-05-10T02:48:34;13.02;;;5.40;;
28934;SDS011;16044;52.726;-2.108;2023-05-10T02:51:23;13.00;;;4.50;;
28934;SDS011;16044;52.726;-2.108;2023-05-10T02:54:19;17.85;;;4.65;;
28934;SDS011;16044;52.726;-2.108;2023-05-10T02:57:14;13.60;;;4.68;;
28934;SDS011;16044;52.726;-2.108;2023-05-10T03:00:07;13.15;;;4.72;;
28934;SDS011;16044;52.726;-2.108;2023-05-10T03:02:55;12.27;;;4.68;;
28934;SDS011;16044;52.726;-2.108;2023-05-10T03:05:42;12.25;;;4.75;;
28934;SDS011;16044;52.726;-2.108;2023-05-10T03:08:30;13.70;;;4.78;;
28934;SDS011;16044;52.726;-2.108;2023-05-10T03:14:33;15.30;;;5.18;;
28934;SDS011;16044;52.726;-2.108;2023-05-10T03:17:35;21.67;;;5.57;;
28934;SDS011;16044;52.726;-2.108;2023-05-10T03:20:42;18.20;;;5.22;;
28934;SDS011;16044;52.726;-2.108;2023-05-10T03:23:35;13.70;;;4.32;;
28934;SDS011;16044;52.726;-2.108;2023-05-10T03:26:39;20.50;;;5.75;;
28934;SDS011;16044;52.726;-2.108;2023-05-10T03:29:30;16.05;;;5.05;;
28934;SDS011;16044;52.726;-2.108;2023-05-10T03:32:18;11.52;;;5.22;;
28934;SDS011;16044;52.726;-2.108;2023-05-10T03:35:09;13.10;;;5.75;;
28934;SDS011;16044;52.726;-2.108;2023-05-10T03:37:58;13.73;;;5.53;;
28934;SDS011;16044;52.726;-2.108;2023-05-10T03:40:46;18.00;;;5.55;;
28934;SDS011;16044;52.726;-2.108;2023-05-10T03:43:34;16.08;;;4.90;;
28934;SDS011;16044;52.726;-2.108;2023-05-10T03:46:21;15.65;;;5.10;;
28934;SDS011;16044;52.726;-2.108;2023-05-10T03:49:09;20.02;;;5.25;;
28934;SDS011;16044;52.726;-2.108;2023-05-10T03:51:56;14.27;;;5.18;;
28934;SDS011;16044;52.726;-2.108;2023-05-10T03:54:43;13.90;;;5.07;;
28934;SDS011;16044;52.726;-2.108;2023-05-10T03:57:31;15.48;;;4.65;;
28934;SDS011;16044;52.726;-2.108;2023-05-10T04:00:18;16.10;;;5.70;;
28934;SDS011;16044;52.726;-2.108;2023-05-10T04:03:06;16.15;;;5.22;;
28934;SDS011;16044;52.726;-2.108;2023-05-10T04:06:00;13.35;;;4.88;;
28934;SDS011;16044;52.726;-2.108;2023-05-10T04:08:48;13.13;;;4.93;;
28934;SDS011;16044;52.726;-2.108;2023-05-10T04:11:36;15.40;;;5.10;;
28934;SDS011;16044;52.726;-2.108;2023-05-10T04:14:23;13.75;;;5.40;;
28934;SDS011;16044;52.726;-2.108;2023-05-10T04:17:11;15.32;;;5.50;;
28934;SDS011;16044;52.726;-2.108;2023-05-10T04:19:58;16.27;;;5.82;;
28934;SDS011;16044;52.726;-2.108;2023-05-10T04:22:46;8.45;;;4.32;;
28934;SDS011;16044;52.726;-2.108;2023-05-10T04:25:34;13.77;;;5.50;;
28934;SDS011;16044;52.726;-2.108;2023-05-10T04:28:22;13.30;;;5.65;;
28934;SDS011;16044;52.726;-2.108;2023-05-10T04:31:09;12.98;;;5.53;;
28934;SDS011;16044;52.726;-2.108;2023-05-10T04:33:57;13.35;;;5.10;;
28934;SDS011;16044;52.726;-2.108;2023-05-10T04:36:44;14.10;;;4.88;;
28934;SDS011;16044;52.726;-2.108;2023-05-10T04:39:31;14.40;;;5.75;;
28934;SDS011;16044;52.726;-2.108;2023-05-10T04:42:19;15.57;;;5.30;;
28934;SDS011;16044;52.726;-2.108;2023-05-10T04:45:06;14.35;;;5.15;;
28934;SDS011;16044;52.726;-2.108;2023-05-10T04:47:54;12.40;;;4.75;;
28934;SDS011;16044;52.726;-2.108;2023-05-10T04:50:41;13.25;;;5.45;;
28934;SDS011;16044;52.726;-2.108;2023-05-10T04:53:29;15.88;;;5.53;;
28934;SDS011;16044;52.726;-2.108;2023-05-10T04:56:16;15.80;;;6.05;;
28934;SDS011;16044;52.726;-2.108;2023-05-10T04:59:04;24.23;;;6.30;;
28934;SDS011;16044;52.726;-2.108;2023-05-10T05:01:51;21.02;;;6.90;;
28934;SDS011;16044;52.726;-2.108;2023-05-10T05:04:39;18.30;;;7.70;;
28934;SDS011;16044;52.726;-2.108;2023-05-10T05:07:26;15.35;;;7.32;;
28934;SDS011;16044;52.726;-2.108;2023-05-10T05:10:13;16.63;;;6.85;;
28934;SDS011;16044;52.726;-2.108;2023-05-10T05:13:01;18.98;;;7.25;;
28934;SDS011;16044;52.726;-2.108;2023-05-10T05:15:49;14.27;;;6.10;;
28934;SDS011;16044;52.726;-2.108;2023-05-10T05:18:36;17.67;;;6.82;;
28934;SDS011;16044;52.726;-2.108;2023-05-10T05:21:24;14.88;;;6.10;;
28934;SDS011;16044;52.726;-2.108;2023-05-10T05:24:13;17.52;;;6.18;;
28934;SDS011;16044;52.726;-2.108;2023-05-10T05:27:00;15.32;;;5.43;;
28934;SDS011;16044;52.726;-2.108;2023-05-10T05:29:48;15.65;;;5.47;;
28934;SDS011;16044;52.726;-2.108;2023-05-10T05:32:35;11.60;;;5.10;;
28934;SDS011;16044;52.726;-2.108;2023-05-10T05:35:25;12.35;;;4.97;;
28934;SDS011;16044;52.726;-2.108;2023-05-10T05:38:13;12.90;;;4.20;;
28934;SDS011;16044;52.726;-2.108;2023-05-10T05:41:01;15.30;;;4.60;;
28934;SDS011;16044;52.726;-2.108;2023-05-10T05:43:48;10.30;;;4.15;;
28934;SDS011;16044;52.726;-2.108;2023-05-10T05:46:35;14.60;;;4.40;;
28934;SDS011;16044;52.726;-2.108;2023-05-10T05:49:23;13.18;;;4.20;;
28934;SDS011;16044;52.726;-2.108;2023-05-10T05:52:10;11.98;;;4.22;;
28934;SDS011;16044;52.726;-2.108;2023-05-10T05:54:58;13.18;;;3.83;;
28934;SDS011;16044;52.726;-2.108;2023-05-10T05:57:45;14.00;;;3.67;;
28934;SDS011;16044;52.726;-2.108;2023-05-10T06:00:33;15.23;;;3.80;;
28934;SDS011;16044;52.726;-2.108;2023-05-10T06:03:20;9.73;;;3.50;;
28934;SDS011;16044;52.726;-2.108;2023-05-10T06:06:08;16.73;;;3.92;;
28934;SDS011;16044;52.726;-2.108;2023-05-10T06:08:55;12.27;;;3.63;;
28934;SDS011;16044;52.726;-2.108;2023-05-10T06:11:42;11.90;;;3.63;;
28934;SDS011;16044;52.726;-2.108;2023-05-10T06:14:30;10.88;;;3.35;;
28934;SDS011;16044;52.726;-2.108;2023-05-10T06:17:17;8.82;;;3.00;;
28934;SDS011;16044;52.726;-2.108;2023-05-10T06:20:05;12.20;;;3.75;;
28934;SDS011;16044;52.726;-2.108;2023-05-10T06:22:54;9.65;;;2.75;;
28934;SDS011;16044;52.726;-2.108;2023-05-10T06:25:41;11.88;;;3.35;;
28934;SDS011;16044;52.726;-2.108;2023-05-10T06:28:29;9.48;;;2.63;;
28934;SDS011;16044;52.726;-2.108;2023-05-10T06:31:18;9.10;;;2.90;;
28934;SDS011;16044;52.726;-2.108;2023-05-10T06:34:05;9.70;;;3.08;;
28934;SDS011;16044;52.726;-2.108;2023-05-10T06:36:54;8.73;;;2.85;;
28934;SDS011;16044;52.726;-2.108;2023-05-10T06:39:42;9.82;;;2.95;;
28934;SDS011;16044;52.726;-2.108;2023-05-10T06:42:29;7.28;;;2.53;;
28934;SDS011;16044;52.726;-2.108;2023-05-10T06:45:16;8.43;;;2.78;;
28934;SDS011;16044;52.726;-2.108;2023-05-10T06:48:04;8.13;;;2.28;;
28934;SDS011;16044;52.726;-2.108;2023-05-10T06:50:52;12.57;;;2.70;;
28934;SDS011;16044;52.726;-2.108;2023-05-10T06:53:39;11.73;;;2.88;;
28934;SDS011;16044;52.726;-2.108;2023-05-10T06:56:26;9.10;;;2.60;;
28934;SDS011;16044;52.726;-2.108;2023-05-10T06:59:14;9.10;;;2.72;;
28934;SDS011;16044;52.726;-2.108;2023-05-10T07:02:03;10.98;;;2.78;;
28934;SDS011;16044;52.726;-2.108;2023-05-10T07:04:50;11.98;;;2.75;;
28934;SDS011;16044;52.726;-2.108;2023-05-10T07:07:38;13.55;;;2.60;;
28934;SDS011;16044;52.726;-2.108;2023-05-10T07:10:26;7.72;;;2.17;;
28934;SDS011;16044;52.726;-2.108;2023-05-10T07:13:13;10.43;;;2.28;;
28934;SDS011;16044;52.726;-2.108;2023-05-10T07:16:01;10.05;;;2.50;;
28934;SDS011;16044;52.726;-2.108;2023-05-10T07:18:49;9.68;;;2.30;;
28934;SDS011;16044;52.726;-2.108;2023-05-10T07:21:37;8.73;;;2.00;;
28934;SDS011;16044;52.726;-2.108;2023-05-10T07:24:27;13.43;;;2.50;;
28934;SDS011;16044;52.726;-2.108;2023-05-10T07:27:14;10.02;;;2.00;;
28934;SDS011;16044;52.726;-2.108;2023-05-10T07:30:02;9.25;;;1.92;;
28934;SDS011;16044;52.726;-2.108;2023-05-10T07:32:49;9.25;;;2.28;;
28934;SDS011;16044;52.726;-2.108;2023-05-10T07:35:37;10.45;;;2.20;;
28934;SDS011;16044;52.726;-2.108;2023-05-10T07:38:24;10.05;;;2.20;;
28934;SDS011;16044;52.726;-2.108;2023-05-10T07:41:12;10.07;;;2.38;;
28934;SDS011;16044;52.726;-2.108;2023-05-10T07:43:59;9.10;;;1.90;;
28934;SDS011;16044;52.726;-2.108;2023-05-10T07:46:47;8.82;;;1.98;;
28934;SDS011;16044;52.726;-2.108;2023-05-10T07:49:35;10.25;;;2.22;;
28934;SDS011;16044;52.726;-2.108;2023-05-10T07:52:22;10.95;;;1.80;;
28934;SDS011;16044;52.726;-2.108;2023-05-10T07:55:10;9.25;;;2.03;;
28934;SDS011;16044;52.726;-2.108;2023-05-10T07:57:57;9.63;;;2.17;;
28934;SDS011;16044;52.726;-2.108;2023-05-10T08:00:47;11.38;;;2.50;;
28934;SDS011;16044;52.726;-2.108;2023-05-10T08:03:36;10.88;;;2.33;;
28934;SDS011;16044;52.726;-2.108;2023-05-10T08:06:23;12.90;;;2.38;;
28934;SDS011;16044;52.726;-2.108;2023-05-10T08:09:13;10.48;;;1.88;;
28934;SDS011;16044;52.726;-2.108;2023-05-10T08:12:00;10.43;;;2.75;;
28934;SDS011;16044;52.726;-2.108;2023-05-10T08:14:48;11.02;;;2.50;;
28934;SDS011;16044;52.726;-2.108;2023-05-10T08:17:35;10.75;;;2.10;;
28934;SDS011;16044;52.726;-2.108;2023-05-10T08:20:23;9.48;;;2.53;;
28934;SDS011;16044;52.726;-2.108;2023-05-10T08:23:12;12.00;;;2.75;;
28934;SDS011;16044;52.726;-2.108;2023-05-10T08:26:00;8.55;;;2.40;;
28934;SDS011;16044;52.726;-2.108;2023-05-10T08:28:47;10.55;;;2.28;;
28934;SDS011;16044;52.726;-2.108;2023-05-10T08:31:35;9.25;;;2.00;;
28934;SDS011;16044;52.726;-2.108;2023-05-10T08:34:22;10.52;;;2.40;;
28934;SDS011;16044;52.726;-2.108;2023-05-10T08:37:10;7.65;;;2.20;;
28934;SDS011;16044;52.726;-2.108;2023-05-10T08:40:00;10.13;;;2.33;;
28934;SDS011;16044;52.726;-2.108;2023-05-10T08:42:51;8.38;;;2.00;;
28934;SDS011;16044;52.726;-2.108;2023-05-10T08:45:46;8.90;;;2.00;;
28934;SDS011;16044;52.726;-2.108;2023-05-10T08:48:34;6.22;;;1.70;;
28934;SDS011;16044;52.726;-2.108;2023-05-10T08:51:23;9.60;;;2.10;;
28934;SDS011;16044;52.726;-2.108;2023-05-10T08:54:14;9.32;;;2.13;;
28934;SDS011;16044;52.726;-2.108;2023-05-10T08:57:02;9.57;;;2.20;;
28934;SDS011;16044;52.726;-2.108;2023-05-10T08:59:50;7.70;;;1.75;;
28934;SDS011;16044;52.726;-2.108;2023-05-10T09:02:37;7.05;;;1.58;;
28934;SDS011;16044;52.726;-2.108;2023-05-10T09:05:25;5.68;;;1.45;;
28934;SDS011;16044;52.726;-2.108;2023-05-10T09:08:13;9.10;;;2.05;;
28934;SDS011;16044;52.726;-2.108;2023-05-10T09:11:03;8.00;;;1.90;;
28934;SDS011;16044;52.726;-2.108;2023-05-10T09:13:50;8.85;;;1.95;;
28934;SDS011;16044;52.726;-2.108;2023-05-10T09:16:39;7.38;;;1.52;;
28934;SDS011;16044;52.726;-2.108;2023-05-10T09:19:27;7.40;;;1.90;;
28934;SDS011;16044;52.726;-2.108;2023-05-10T09:22:15;6.60;;;1.73;;
28934;SDS011;16044;52.726;-2.108;2023-05-10T09:27:55;8.95;;;1.65;;
28934;SDS011;16044;52.726;-2.108;2023-05-10T09:30:42;4.97;;;1.42;;
28934;SDS011;16044;52.726;-2.108;2023-05-10T09:33:30;5.28;;;1.65;;
28934;SDS011;16044;52.726;-2.108;2023-05-10T09:36:32;7.35;;;1.70;;
28934;SDS011;16044;52.726;-2.108;2023-05-10T09:39:20;7.50;;;1.63;;
28934;SDS011;16044;52.726;-2.108;2023-05-10T09:42:09;6.45;;;1.70;;
28934;SDS011;16044;52.726;-2.108;2023-05-10T09:45:01;6.55;;;1.80;;
28934;SDS011;16044;52.726;-2.108;2023-05-10T09:47:52;6.10;;;1.60;;
28934;SDS011;16044;52.726;-2.108;2023-05-10T09:50:40;5.82;;;1.50;;
28934;SDS011;16044;52.726;-2.108;2023-05-10T09:53:28;4.28;;;1.10;;
28934;SDS011;16044;52.726;-2.108;2023-05-10T09:59:32;3.30;;;0.77;;
28934;SDS011;16044;52.726;-2.108;2023-05-10T10:02:21;4.82;;;1.15;;
28934;SDS011;16044;52.726;-2.108;2023-05-10T10:05:16;7.95;;;1.30;;
28934;SDS011;16044;52.726;-2.108;2023-05-10T10:08:04;7.40;;;1.40;;
28934;SDS011;16044;52.726;-2.108;2023-05-10T10:10:52;6.50;;;1.35;;
28934;SDS011;16044;52.726;-2.108;2023-05-10T10:13:40;5.75;;;1.15;;
28934;SDS011;16044;52.726;-2.108;2023-05-10T10:16:31;4.18;;;1.00;;
28934;SDS011;16044;52.726;-2.108;2023-05-10T10:19:20;3.25;;;1.08;;
28934;SDS011;16044;52.726;-2.108;2023-05-10T10:22:08;6.35;;;1.45;;
28934;SDS011;16044;52.726;-2.108;2023-05-10T10:24:58;6.78;;;1.33;;
28934;SDS011;16044;52.726;-2.108;2023-05-10T10:30:43;4.18;;;1.27;;
28934;SDS011;16044;52.726;-2.108;2023-05-10T10:33:48;5.43;;;1.13;;
28934;SDS011;16044;52.726;-2.108;2023-05-10T10:36:46;8.65;;;1.35;;
28934;SDS011;16044;52.726;-2.108;2023-05-10T10:39:33;5.50;;;0.93;;
28934;SDS011;16044;52.726;-2.108;2023-05-10T10:45:33;5.22;;;1.20;;
28934;SDS011;16044;52.726;-2.108;2023-05-10T10:48:21;4.30;;;1.00;;
28934;SDS011;16044;52.726;-2.108;2023-05-10T10:51:10;5.38;;;1.27;;
28934;SDS011;16044;52.726;-2.108;2023-05-10T10:54:08;4.85;;;0.95;;
28934;SDS011;16044;52.726;-2.108;2023-05-10T10:57:11;4.00;;;0.70;;
28934;SDS011;16044;52.726;-2.108;2023-05-10T11:03:10;3.58;;;0.68;;
28934;SDS011;16044;52.726;-2.108;2023-05-10T11:06:05;3.67;;;0.60;;
28934;SDS011;16044;52.726;-2.108;2023-05-10T11:08:54;2.85;;;0.63;;
28934;SDS011;16044;52.726;-2.108;2023-05-10T11:11:51;3.30;;;0.80;;
28934;SDS011;16044;52.726;-2.108;2023-05-10T11:14:42;1.98;;;0.60;;
28934;SDS011;16044;52.726;-2.108;2023-05-10T11:17:29;2.42;;;0.85;;
28934;SDS011;16044;52.726;-2.108;2023-05-10T11:20:18;4.80;;;0.90;;
28934;SDS011;16044;52.726;-2.108;2023-05-10T11:23:12;3.63;;;0.85;;
28934;SDS011;16044;52.726;-2.108;2023-05-10T11:26:02;3.75;;;1.00;;
28934;SDS011;16044;52.726;-2.108;2023-05-10T11:28:50;5.03;;;1.00;;
28934;SDS011;16044;52.726;-2.108;2023-05-10T11:31:43;3.63;;;0.90;;
28934;SDS011;16044;52.726;-2.108;2023-05-10T11:34:32;4.75;;;1.05;;
28934;SDS011;16044;52.726;-2.108;2023-05-10T11:37:22;3.30;;;0.88;;
28934;SDS011;16044;52.726;-2.108;2023-05-10T11:40:09;2.97;;;0.95;;
28934;SDS011;16044;52.726;-2.108;2023-05-10T11:42:57;2.70;;;0.68;;
28934;SDS011;16044;52.726;-2.108;2023-05-10T11:45:46;2.55;;;0.73;;
28934;SDS011;16044;52.726;-2.108;2023-05-10T11:48:33;2.42;;;0.75;;
28934;SDS011;16044;52.726;-2.108;2023-05-10T11:51:21;5.25;;;0.70;;
28934;SDS011;16044;52.726;-2.108;2023-05-10T11:54:10;4.03;;;0.70;;
28934;SDS011;16044;52.726;-2.108;2023-05-10T11:56:58;4.07;;;0.70;;
28934;SDS011;16044;52.726;-2.108;2023-05-10T11:59:52;3.72;;;0.75;;
28934;SDS011;16044;52.726;-2.108;2023-05-10T12:05:31;3.25;;;0.55;;
28934;SDS011;16044;52.726;-2.108;2023-05-10T12:08:20;3.72;;;0.70;;
28934;SDS011;16044;52.726;-2.108;2023-05-10T12:11:13;1.83;;;0.50;;
28934;SDS011;16044;52.726;-2.108;2023-05-10T12:14:03;1.73;;;0.40;;
28934;SDS011;16044;52.726;-2.108;2023-05-10T12:16:52;1.50;;;0.40;;
28934;SDS011;16044;52.726;-2.108;2023-05-10T12:19:40;2.45;;;0.40;;
28934;SDS011;16044;52.726;-2.108;2023-05-10T12:22:28;3.10;;;0.60;;
28934;SDS011;16044;52.726;-2.108;2023-05-10T12:25:16;1.77;;;0.50;;
28934;SDS011;16044;52.726;-2.108;2023-05-10T12:28:08;2.08;;;0.52;;
28934;SDS011;16044;52.726;-2.108;2023-05-10T12:30:57;1.73;;;0.52;;
28934;SDS011;16044;52.726;-2.108;2023-05-10T12:33:45;1.38;;;0.50;;
28934;SDS011;16044;52.726;-2.108;2023-05-10T12:36:34;1.80;;;0.52;;
28934;SDS011;16044;52.726;-2.108;2023-05-10T12:39:25;1.05;;;0.43;;
28934;SDS011;16044;52.726;-2.108;2023-05-10T12:42:13;2.22;;;0.40;;
28934;SDS011;16044;52.726;-2.108;2023-05-10T12:45:00;1.35;;;0.45;;
28934;SDS011;16044;52.726;-2.108;2023-05-10T12:47:48;1.58;;;0.47;;
28934;SDS011;16044;52.726;-2.108;2023-05-10T12:50:35;1.48;;;0.30;;
28934;SDS011;16044;52.726;-2.108;2023-05-10T12:53:22;0.95;;;0.40;;
28934;SDS011;16044;52.726;-2.108;2023-05-10T12:56:10;3.28;;;0.57;;
28934;SDS011;16044;52.726;-2.108;2023-05-10T12:58:57;2.15;;;0.70;;
28934;SDS011;16044;52.726;-2.108;2023-05-10T13:01:44;2.15;;;0.43;;
28934;SDS011;16044;52.726;-2.108;2023-05-10T13:04:32;2.60;;;0.47;;
28934;SDS011;16044;52.726;-2.108;2023-05-10T13:07:19;1.63;;;0.30;;
28934;SDS011;16044;52.726;-2.108;2023-05-10T13:10:07;2.40;;;0.50;;
28934;SDS011;16044;52.726;-2.108;2023-05-10T13:12:54;1.83;;;0.40;;
28934;SDS011;16044;52.726;-2.108;2023-05-10T13:15:42;0.82;;;0.30;;
28934;SDS011;16044;52.726;-2.108;2023-05-10T13:18:29;1.10;;;0.43;;
28934;SDS011;16044;52.726;-2.108;2023-05-10T13:21:17;2.35;;;0.45;;
28934;SDS011;16044;52.726;-2.108;2023-05-10T13:24:04;1.33;;;0.43;;
28934;SDS011;16044;52.726;-2.108;2023-05-10T13:26:52;2.05;;;0.40;;
28934;SDS011;16044;52.726;-2.108;2023-05-10T13:29:39;2.88;;;0.40;;
28934;SDS011;16044;52.726;-2.108;2023-05-10T13:32:30;1.73;;;0.50;;
28934;SDS011;16044;52.726;-2.108;2023-05-10T13:35:17;1.88;;;0.63;;
28934;SDS011;16044;52.726;-2.108;2023-05-10T13:38:05;2.95;;;0.60;;
28934;SDS011;16044;52.726;-2.108;2023-05-10T13:40:54;3.13;;;0.55;;
28934;SDS011;16044;52.726;-2.108;2023-05-10T13:43:42;2.80;;;0.80;;
28934;SDS011;16044;52.726;-2.108;2023-05-10T13:46:29;6.03;;;0.80;;
28934;SDS011;16044;52.726;-2.108;2023-05-10T13:49:17;3.35;;;0.60;;
28934;SDS011;16044;52.726;-2.108;2023-05-10T13:52:05;2.53;;;0.40;;
28934;SDS011;16044;52.726;-2.108;2023-05-10T13:54:56;1.88;;;0.47;;
28934;SDS011;16044;52.726;-2.108;2023-05-10T13:57:44;2.15;;;0.50;;
28934;SDS011;16044;52.726;-2.108;2023-05-10T14:00:31;2.20;;;0.40;;
28934;SDS011;16044;52.726;-2.108;2023-05-10T14:03:19;3.10;;;0.60;;
28934;SDS011;16044;52.726;-2.108;2023-05-10T14:06:06;2.53;;;0.60;;
28934;SDS011;16044;52.726;-2.108;2023-05-10T14:08:54;2.50;;;0.70;;
28934;SDS011;16044;52.726;-2.108;2023-05-10T14:11:42;3.47;;;0.60;;
28934;SDS011;16044;52.726;-2.108;2023-05-10T14:14:30;2.67;;;0.60;;
28934;SDS011;16044;52.726;-2.108;2023-05-10T14:17:17;2.90;;;0.60;;
28934;SDS011;16044;52.726;-2.108;2023-05-10T14:20:05;4.03;;;0.75;;
28934;SDS011;16044;52.726;-2.108;2023-05-10T14:22:53;1.83;;;0.50;;
28934;SDS011;16044;52.726;-2.108;2023-05-10T14:25:40;3.28;;;0.70;;
28934;SDS011;16044;52.726;-2.108;2023-05-10T14:28:28;2.17;;;0.50;;
28934;SDS011;16044;52.726;-2.108;2023-05-10T14:31:15;2.78;;;0.50;;
28934;SDS011;16044;52.726;-2.108;2023-05-10T14:34:03;1.52;;;0.40;;
28934;SDS011;16044;52.726;-2.108;2023-05-10T14:36:51;2.47;;;0.50;;
28934;SDS011;16044;52.726;-2.108;2023-05-10T14:39:38;1.77;;;0.40;;
28934;SDS011;16044;52.726;-2.108;2023-05-10T14:42:26;1.92;;;0.47;;
28934;SDS011;16044;52.726;-2.108;2023-05-10T14:45:13;4.38;;;0.52;;
28934;SDS011;16044;52.726;-2.108;2023-05-10T14:48:01;1.63;;;0.63;;
28934;SDS011;16044;52.726;-2.108;2023-05-10T14:50:51;2.25;;;0.60;;
28934;SDS011;16044;52.726;-2.108;2023-05-10T14:53:39;2.67;;;0.40;;
28934;SDS011;16044;52.726;-2.108;2023-05-10T14:56:27;5.45;;;0.52;;
28934;SDS011;16044;52.726;-2.108;2023-05-10T14:59:14;2.28;;;0.55;;
28934;SDS011;16044;52.726;-2.108;2023-05-10T15:02:02;2.65;;;0.50;;
28934;SDS011;16044;52.726;-2.108;2023-05-10T15:04:51;3.47;;;0.70;;
28934;SDS011;16044;52.726;-2.108;2023-05-10T15:07:39;4.00;;;0.60;;
28934;SDS011;16044;52.726;-2.108;2023-05-10T15:10:27;2.83;;;0.70;;
28934;SDS011;16044;52.726;-2.108;2023-05-10T15:13:14;4.10;;;0.70;;
28934;SDS011;16044;52.726;-2.108;2023-05-10T15:16:01;4.18;;;0.90;;
28934;SDS011;16044;52.726;-2.108;2023-05-10T15:18:49;1.65;;;0.55;;
28934;SDS011;16044;52.726;-2.108;2023-05-10T15:21:36;3.47;;;0.82;;
28934;SDS011;16044;52.726;-2.108;2023-05-10T15:24:25;3.17;;;0.70;;
28934;SDS011;16044;52.726;-2.108;2023-05-10T15:27:13;3.50;;;0.52;;
28934;SDS011;16044;52.726;-2.108;2023-05-10T15:30:00;1.98;;;0.70;;
28934;SDS011;16044;52.726;-2.108;2023-05-10T15:32:48;3.45;;;0.70;;
28934;SDS011;16044;52.726;-2.108;2023-05-10T15:35:36;2.47;;;0.75;;
28934;SDS011;16044;52.726;-2.108;2023-05-10T15:38:25;3.50;;;0.70;;
28934;SDS011;16044;52.726;-2.108;2023-05-10T15:41:12;2.38;;;0.63;;
28934;SDS011;16044;52.726;-2.108;2023-05-10T15:43:59;5.00;;;0.80;;
28934;SDS011;16044;52.726;-2.108;2023-05-10T15:46:47;4.60;;;0.60;;
28934;SDS011;16044;52.726;-2.108;2023-05-10T15:49:34;3.45;;;0.68;;
28934;SDS011;16044;52.726;-2.108;2023-05-10T15:52:22;3.22;;;0.60;;
28934;SDS011;16044;52.726;-2.108;2023-05-10T15:55:10;4.18;;;0.65;;
28934;SDS011;16044;52.726;-2.108;2023-05-10T15:58:00;2.30;;;0.73;;
28934;SDS011;16044;52.726;-2.108;2023-05-10T16:00:48;2.30;;;0.88;;
28934;SDS011;16044;52.726;-2.108;2023-05-10T16:03:35;3.10;;;0.50;;
28934;SDS011;16044;52.726;-2.108;2023-05-10T16:06:23;3.75;;;0.50;;
28934;SDS011;16044;52.726;-2.108;2023-05-10T16:09:10;2.65;;;0.57;;
28934;SDS011;16044;52.726;-2.108;2023-05-10T16:11:58;4.05;;;0.70;;
28934;SDS011;16044;52.726;-2.108;2023-05-10T16:14:45;3.53;;;0.80;;
28934;SDS011;16044;52.726;-2.108;2023-05-10T16:17:33;3.10;;;0.70;;
28934;SDS011;16044;52.726;-2.108;2023-05-10T16:20:21;2.90;;;0.73;;
28934;SDS011;16044;52.726;-2.108;2023-05-10T16:23:08;4.85;;;0.80;;
28934;SDS011;16044;52.726;-2.108;2023-05-10T16:25:56;3.08;;;0.63;;
28934;SDS011;16044;52.726;-2.108;2023-05-10T16:28:43;2.58;;;0.70;;
28934;SDS011;16044;52.726;-2.108;2023-05-10T16:31:32;4.53;;;0.80;;
28934;SDS011;16044;52.726;-2.108;2023-05-10T16:34:20;4.88;;;0.90;;
28934;SDS011;16044;52.726;-2.108;2023-05-10T16:37:10;4.57;;;0.85;;
28934;SDS011;16044;52.726;-2.108;2023-05-10T16:39:57;4.28;;;0.70;;
28934;SDS011;16044;52.726;-2.108;2023-05-10T16:42:44;3.10;;;0.80;;
28934;SDS011;16044;52.726;-2.108;2023-05-10T16:45:32;3.67;;;0.75;;
28934;SDS011;16044;52.726;-2.108;2023-05-10T16:48:19;3.55;;;0.85;;
28934;SDS011;16044;52.726;-2.108;2023-05-10T16:51:06;4.18;;;0.95;;
28934;SDS011;16044;52.726;-2.108;2023-05-10T16:53:54;3.33;;;0.80;;
28934;SDS011;16044;52.726;-2.108;2023-05-10T16:56:42;6.53;;;1.02;;
28934;SDS011;16044;52.726;-2.108;2023-05-10T16:59:29;3.50;;;1.08;;
28934;SDS011;16044;52.726;-2.108;2023-05-10T17:02:17;4.10;;;1.10;;
28934;SDS011;16044;52.726;-2.108;2023-05-10T17:05:04;3.25;;;0.88;;
28934;SDS011;16044;52.726;-2.108;2023-05-10T17:07:52;3.83;;;1.02;;